createdAt,value
2018-12-30T00:01:47.819Z,-80
2018-12-30T00:04:23.289Z,-80
2018-12-30T00:07:00.758Z,-80
2018-12-30T00:09:34.402Z,-80
2018-12-30T00:12:08.167Z,-79
2018-12-30T00:14:44.161Z,-80
2018-12-30T00:17:21.054Z,-80
2018-12-30T00:19:56.394Z,-80
2018-12-30T00:22:29.264Z,-80
2018-12-30T00:25:01.954Z,-80
2018-12-30T00:27:38.189Z,-82
2018-12-30T00:30:13.707Z,-80
2018-12-30T00:32:47.516Z,-80
2018-12-30T00:35:22.575Z,-79
2018-12-30T00:37:57.614Z,-79
2018-12-30T00:40:31.835Z,-79
2018-12-30T00:43:05.637Z,-79
2018-12-30T00:45:44.015Z,-80
2018-12-30T00:48:20.103Z,-82
2018-12-30T00:50:54.894Z,-81
2018-12-30T00:53:29.442Z,-81
2018-12-30T00:56:03.146Z,-81
2018-12-30T00:58:37.818Z,-81
2018-12-30T01:01:11.728Z,-79
2018-12-30T01:03:47.065Z,-79
2018-12-30T01:06:21.230Z,-79
2018-12-30T01:08:55.076Z,-80
2018-12-30T01:11:29.601Z,-79
2018-12-30T01:14:02.673Z,-79
2018-12-30T01:16:38.900Z,-80
2018-12-30T01:19:16.500Z,-79
2018-12-30T01:21:51.006Z,-79
2018-12-30T01:24:26.306Z,-79
2018-12-30T01:27:00.883Z,-79
2018-12-30T01:29:38.585Z,-80
2018-12-30T01:32:13.603Z,-79
2018-12-30T01:34:46.805Z,-80
2018-12-30T01:37:21.286Z,-80
2018-12-30T01:39:55.274Z,-79
2018-12-30T01:42:29.626Z,-79
2018-12-30T01:45:02.562Z,-82
2018-12-30T01:47:35.420Z,-79
2018-12-30T01:50:08.838Z,-80
2018-12-30T01:52:41.521Z,-80
2018-12-30T01:55:14.556Z,-80
2018-12-30T01:57:52.299Z,-79
2018-12-30T02:00:29.051Z,-79
2018-12-30T02:03:03.470Z,-79
2018-12-30T02:05:37.341Z,-80
2018-12-30T02:08:10.017Z,-79
2018-12-30T02:10:43.073Z,-79
2018-12-30T02:13:16.832Z,-80
2018-12-30T02:15:51.049Z,-80
2018-12-30T02:18:24.594Z,-79
2018-12-30T02:20:58.146Z,-79
2018-12-30T02:23:31.744Z,-79
2018-12-30T02:26:04.878Z,-79
2018-12-30T02:28:42.305Z,-79
2018-12-30T02:31:15.498Z,-79
2018-12-30T02:33:49.263Z,-79
2018-12-30T02:36:22.617Z,-79
2018-12-30T02:38:57.036Z,-79
2018-12-30T02:41:29.958Z,-79
2018-12-30T02:44:04.334Z,-79
2018-12-30T02:46:39.427Z,-80
2018-12-30T02:49:17.598Z,-79
2018-12-30T02:51:51.930Z,-79
2018-12-30T02:54:24.062Z,-79
2018-12-30T02:56:57.916Z,-80
2018-12-30T02:59:30.607Z,-80
2018-12-30T03:02:06.672Z,-79
2018-12-30T03:04:42.580Z,-80
2018-12-30T03:07:18.753Z,-80
2018-12-30T03:09:53.320Z,-80
2018-12-30T03:12:30.122Z,-79
2018-12-30T03:15:04.534Z,-79
2018-12-30T03:17:42.987Z,-79
2018-12-30T03:20:16.013Z,-79
2018-12-30T03:22:48.936Z,-79
2018-12-30T03:25:22.343Z,-79
2018-12-30T03:28:01.045Z,-78
2018-12-30T03:30:38.537Z,-79
2018-12-30T03:33:11.252Z,-79
2018-12-30T03:35:46.669Z,-79
2018-12-30T03:38:20.854Z,-79
2018-12-30T03:40:55.293Z,-79
2018-12-30T03:43:29.226Z,-79
2018-12-30T03:46:05.207Z,-79
2018-12-30T03:48:39.271Z,-79
2018-12-30T03:51:14.238Z,-79
2018-12-30T03:53:46.752Z,-79
2018-12-30T03:56:21.729Z,-79
2018-12-30T03:58:58.372Z,-79
2018-12-30T04:01:34.321Z,-79
2018-12-30T04:04:08.918Z,-79
2018-12-30T04:06:42.000Z,-79
2018-12-30T04:09:15.477Z,-79
2018-12-30T04:11:48.332Z,-78
2018-12-30T04:14:21.919Z,-79
2018-12-30T04:16:57.907Z,-79
2018-12-30T04:19:34.478Z,-79
2018-12-30T04:22:07.032Z,-78
2018-12-30T04:24:40.536Z,-79
2018-12-30T04:27:14.236Z,-79
2018-12-30T04:29:47.327Z,-79
2018-12-30T04:32:21.141Z,-79
2018-12-30T04:34:55.002Z,-79
2018-12-30T04:37:29.167Z,-78
2018-12-30T04:40:03.090Z,-79
2018-12-30T04:42:37.150Z,-80
2018-12-30T04:45:10.788Z,-80
2018-12-30T04:47:45.377Z,-80
2018-12-30T04:50:19.578Z,-80
2018-12-30T04:52:52.592Z,-79
2018-12-30T04:55:25.506Z,-79
2018-12-30T04:57:58.109Z,-79
2018-12-30T05:00:32.580Z,-79
2018-12-30T05:03:06.950Z,-79
2018-12-30T05:05:41.438Z,-78
2018-12-30T05:08:15.064Z,-79
2018-12-30T05:10:48.513Z,-79
2018-12-30T05:13:22.375Z,-79
2018-12-30T05:15:55.834Z,-80
2018-12-30T05:18:29.219Z,-79
2018-12-30T05:21:02.745Z,-79
2018-12-30T05:23:36.007Z,-79
2018-12-30T05:26:09.787Z,-79
2018-12-30T05:28:44.211Z,-80
2018-12-30T05:31:18.082Z,-80
2018-12-30T05:33:54.373Z,-79
2018-12-30T05:36:28.941Z,-79
2018-12-30T05:39:05.395Z,-80
2018-12-30T05:41:39.157Z,-80
2018-12-30T05:44:11.973Z,-81
2018-12-30T05:46:45.193Z,-80
2018-12-30T05:49:18.648Z,-80
2018-12-30T05:51:52.661Z,-80
2018-12-30T05:54:27.540Z,-80
2018-12-30T05:57:01.968Z,-80
2018-12-30T05:59:35.433Z,-80
2018-12-30T06:02:07.960Z,-80
2018-12-30T06:04:41.696Z,-80
2018-12-30T06:07:15.513Z,-79
2018-12-30T06:09:49.742Z,-80
2018-12-30T06:12:22.662Z,-80
2018-12-30T06:14:55.904Z,-80
2018-12-30T06:17:29.593Z,-80
2018-12-30T06:20:03.008Z,-81
2018-12-30T06:22:36.198Z,-80
2018-12-30T06:25:08.398Z,-80
2018-12-30T06:27:40.633Z,-81
2018-12-30T06:30:14.727Z,-82
2018-12-30T06:32:50.217Z,-81
2018-12-30T06:35:24.404Z,-80
2018-12-30T06:37:58.525Z,-80
2018-12-30T06:40:32.772Z,-79
2018-12-30T06:43:07.112Z,-79
2018-12-30T06:45:40.671Z,-80
2018-12-30T06:48:13.428Z,-80
2018-12-30T06:50:47.006Z,-80
2018-12-30T06:53:19.877Z,-80
2018-12-30T06:55:52.376Z,-80
2018-12-30T06:58:25.473Z,-79
2018-12-30T07:00:58.909Z,-80
2018-12-30T07:03:33.215Z,-80
2018-12-30T07:06:07.649Z,-80
2018-12-30T07:08:42.403Z,-81
2018-12-30T07:11:16.815Z,-80
2018-12-30T07:13:50.780Z,-80
2018-12-30T07:16:24.411Z,-80
2018-12-30T07:18:58.379Z,-80
2018-12-30T07:21:32.189Z,-80
2018-12-30T07:24:04.608Z,-80
2018-12-30T07:26:37.524Z,-80
2018-12-30T07:29:11.191Z,-80
2018-12-30T07:31:45.125Z,-80
2018-12-30T07:34:18.892Z,-81
2018-12-30T07:36:52.867Z,-82
2018-12-30T07:39:27.004Z,-83
2018-12-30T07:42:06.207Z,-82
2018-12-30T07:44:45.122Z,-83
2018-12-30T07:47:19.748Z,-83
2018-12-30T07:49:53.140Z,-83
2018-12-30T07:52:26.137Z,-82
2018-12-30T07:55:00.221Z,-82
2018-12-30T07:57:33.361Z,-82
2018-12-30T08:00:08.270Z,-83
2018-12-30T08:02:43.208Z,-83
2018-12-30T08:05:16.908Z,-82
2018-12-30T08:07:50.610Z,-81
2018-12-30T08:10:24.589Z,-82
2018-12-30T08:12:59.312Z,-83
2018-12-30T08:15:33.932Z,-82
2018-12-30T08:18:07.415Z,-82
2018-12-30T08:20:40.673Z,-82
2018-12-30T08:23:13.038Z,-82
2018-12-30T08:25:45.307Z,-81
2018-12-30T08:28:25.060Z,-82
2018-12-30T08:30:55.387Z,-82
2018-12-30T08:33:29.969Z,-81
2018-12-30T08:36:03.680Z,-81
2018-12-30T08:38:37.535Z,-82
2018-12-30T08:41:11.683Z,-81
2018-12-30T08:43:46.090Z,-81
2018-12-30T08:46:21.221Z,-81
2018-12-30T08:48:54.907Z,-80
2018-12-30T08:51:28.577Z,-80
2018-12-30T08:54:01.549Z,-80
2018-12-30T08:56:35.386Z,-80
2018-12-30T08:59:09.698Z,-80
2018-12-30T09:01:43.709Z,-81
2018-12-30T09:04:16.585Z,-81
2018-12-30T09:06:49.512Z,-81
2018-12-30T09:09:22.404Z,-81
2018-12-30T09:11:55.222Z,-81
2018-12-30T09:14:27.950Z,-80
2018-12-30T09:17:02.410Z,-80
2018-12-30T09:19:35.660Z,-83
2018-12-30T09:22:08.907Z,-82
2018-12-30T09:24:41.807Z,-81
2018-12-30T09:27:15.262Z,-82
2018-12-30T09:29:49.238Z,-84
2018-12-30T09:32:23.716Z,-81
2018-12-30T09:34:57.891Z,-81
2018-12-30T09:37:30.810Z,-82
2018-12-30T09:40:03.792Z,-82
2018-12-30T09:42:37.892Z,-82
2018-12-30T09:45:10.318Z,-82
2018-12-30T09:47:44.571Z,-82
2018-12-30T09:50:19.310Z,-82
2018-12-30T09:52:55.762Z,-82
2018-12-30T09:55:29.052Z,-83
2018-12-30T09:58:09.156Z,-83
2018-12-30T10:00:42.618Z,-83
2018-12-30T10:03:16.390Z,-82
2018-12-30T10:05:49.166Z,-83
2018-12-30T10:08:23.005Z,-83
2018-12-30T10:10:56.160Z,-82
2018-12-30T10:13:30.114Z,-83
2018-12-30T10:16:03.205Z,-82
2018-12-30T10:18:37.817Z,-83
2018-12-30T10:21:11.603Z,-83
2018-12-30T10:23:44.501Z,-82
2018-12-30T10:26:17.166Z,-84
2018-12-30T10:28:50.443Z,-84
2018-12-30T10:31:24.049Z,-84
2018-12-30T10:33:56.369Z,-85
2018-12-30T10:36:29.755Z,-84
2018-12-30T10:39:05.948Z,-83
2018-12-30T10:41:40.232Z,-84
2018-12-30T10:44:12.717Z,-84
2018-12-30T10:46:45.822Z,-85
2018-12-30T10:49:18.043Z,-84
2018-12-30T10:51:50.213Z,-84
2018-12-30T10:54:23.381Z,-84
2018-12-30T10:56:55.321Z,-83
2018-12-30T10:59:29.122Z,-83
2018-12-30T11:02:02.770Z,-83
2018-12-30T11:04:37.296Z,-83
2018-12-30T11:07:11.305Z,-84
2018-12-30T11:09:45.314Z,-83
2018-12-30T11:12:18.648Z,-84
2018-12-30T11:14:53.122Z,-83
2018-12-30T11:17:25.675Z,-84
2018-12-30T11:19:57.686Z,-83
2018-12-30T11:22:30.692Z,-83
2018-12-30T11:25:03.597Z,-83
2018-12-30T11:27:37.232Z,-83
2018-12-30T11:30:11.083Z,-83
2018-12-30T11:32:43.569Z,-83
2018-12-30T11:35:17.802Z,-83
2018-12-30T11:37:51.134Z,-84
2018-12-30T11:40:24.649Z,-83
2018-12-30T11:42:58.230Z,-84
2018-12-30T11:45:33.921Z,-84
2018-12-30T11:48:07.693Z,-84
2018-12-30T11:50:41.692Z,-83
2018-12-30T11:53:15.227Z,-84
2018-12-30T11:55:50.393Z,-84
2018-12-30T11:58:24.136Z,-85
2018-12-30T12:00:57.312Z,-84
2018-12-30T12:03:31.264Z,-84
2018-12-30T12:06:03.655Z,-84
2018-12-30T12:08:36.509Z,-85
2018-12-30T12:11:10.197Z,-85
2018-12-30T12:13:43.762Z,-84
2018-12-30T12:16:16.430Z,-84
2018-12-30T12:18:49.236Z,-84
2018-12-30T12:21:21.832Z,-85
2018-12-30T12:23:53.749Z,-84
2018-12-30T12:26:25.605Z,-85
2018-12-30T12:28:59.290Z,-84
2018-12-30T12:31:34.234Z,-84
2018-12-30T12:34:07.289Z,-84
2018-12-30T12:36:42.300Z,-82
2018-12-30T12:39:20.727Z,-82
2018-12-30T12:41:56.684Z,-82
2018-12-30T12:44:32.047Z,-83
2018-12-30T12:47:10.547Z,-83
2018-12-30T12:49:46.936Z,-83
2018-12-30T12:52:20.180Z,-83
2018-12-30T12:54:52.688Z,-84
2018-12-30T12:57:25.338Z,-82
2018-12-30T12:59:58.633Z,-84
2018-12-30T13:02:31.466Z,-83
2018-12-30T13:05:05.439Z,-83
2018-12-30T13:07:39.085Z,-83
2018-12-30T13:10:14.530Z,-83
2018-12-30T13:12:47.457Z,-83
2018-12-30T13:15:21.060Z,-82
2018-12-30T13:17:53.349Z,-83
2018-12-30T13:20:26.835Z,-82
2018-12-30T13:23:02.274Z,-82
2018-12-30T13:25:36.494Z,-82
2018-12-30T13:28:11.925Z,-82
2018-12-30T13:30:46.810Z,-82
2018-12-30T13:33:18.865Z,-83
2018-12-30T13:35:51.088Z,-82
2018-12-30T13:38:28.242Z,-82
2018-12-30T13:40:57.530Z,-83
2018-12-30T13:43:31.389Z,-83
2018-12-30T13:46:04.121Z,-83
2018-12-30T13:48:37.020Z,-82
2018-12-30T13:51:10.835Z,-82
2018-12-30T13:53:43.489Z,-83
2018-12-30T13:56:16.841Z,-83
2018-12-30T13:58:50.422Z,-82
2018-12-30T14:01:24.022Z,-83
2018-12-30T14:03:58.483Z,-82
2018-12-30T14:06:32.903Z,-82
2018-12-30T14:09:07.938Z,-82
2018-12-30T14:11:42.533Z,-81
2018-12-30T14:14:16.823Z,-83
2018-12-30T14:16:50.298Z,-82
2018-12-30T14:19:23.455Z,-82
2018-12-30T14:21:57.145Z,-82
2018-12-30T14:24:29.827Z,-82
2018-12-30T14:27:03.069Z,-82
2018-12-30T14:29:36.095Z,-82
2018-12-30T14:32:10.348Z,-83
2018-12-30T14:34:44.936Z,-83
2018-12-30T14:37:19.589Z,-82
2018-12-30T14:39:53.321Z,-82
2018-12-30T14:42:28.459Z,-84
2018-12-30T14:45:02.096Z,-84
2018-12-30T14:47:36.713Z,-85
2018-12-30T14:50:13.663Z,-86
2018-12-30T14:52:47.185Z,-83
2018-12-30T14:55:21.151Z,-81
2018-12-30T14:57:54.915Z,-80
2018-12-30T15:00:29.633Z,-79
2018-12-30T15:03:02.113Z,-80
2018-12-30T15:05:34.701Z,-80
2018-12-30T15:08:07.279Z,-80
2018-12-30T15:10:43.903Z,-79
2018-12-30T15:13:17.564Z,-80
2018-12-30T15:15:51.479Z,-80
2018-12-30T15:18:24.985Z,-80
2018-12-30T15:20:58.282Z,-80
2018-12-30T15:23:32.161Z,-80
2018-12-30T15:26:05.620Z,-80
2018-12-30T15:28:38.296Z,-81
2018-12-30T15:31:11.065Z,-81
2018-12-30T15:33:45.639Z,-79
2018-12-30T15:36:18.735Z,-79
2018-12-30T15:38:53.658Z,-79
2018-12-30T15:41:26.985Z,-80
2018-12-30T15:44:01.536Z,-80
2018-12-30T15:46:34.087Z,-78
2018-12-30T15:49:06.153Z,-79
2018-12-30T15:51:38.454Z,-79
2018-12-30T15:54:11.690Z,-78
2018-12-30T15:56:45.038Z,-79
2018-12-30T15:59:26.826Z,-78
2018-12-30T16:02:01.111Z,-78
2018-12-30T16:04:35.392Z,-78
2018-12-30T16:07:09.524Z,-78
2018-12-30T16:09:43.399Z,-78
2018-12-30T16:12:16.968Z,-81
2018-12-30T16:14:53.378Z,-81
2018-12-30T16:17:27.101Z,-78
2018-12-30T16:20:00.291Z,-80
2018-12-30T16:22:34.114Z,-80
2018-12-30T16:25:09.198Z,-80
2018-12-30T16:27:42.612Z,-79
2018-12-30T16:30:15.800Z,-79
2018-12-30T16:32:49.516Z,-79
2018-12-30T16:35:22.794Z,-79
2018-12-30T16:37:55.017Z,-79
2018-12-30T16:40:30.291Z,-79
2018-12-30T16:43:04.236Z,-79
2018-12-30T16:45:38.442Z,-80
2018-12-30T16:48:12.605Z,-80
2018-12-30T16:50:47.735Z,-80
2018-12-30T16:53:21.509Z,-80
2018-12-30T16:55:54.599Z,-80
2018-12-30T16:58:28.146Z,-83
2018-12-30T17:01:03.119Z,-80
2018-12-30T17:03:36.608Z,-79
2018-12-30T17:06:11.921Z,-80
2018-12-30T17:08:44.891Z,-80
2018-12-30T17:11:18.353Z,-80
2018-12-30T17:13:52.762Z,-80
2018-12-30T17:16:26.259Z,-80
2018-12-30T17:19:00.207Z,-81
2018-12-30T17:21:34.221Z,-80
2018-12-30T17:24:07.157Z,-81
2018-12-30T17:26:41.314Z,-80
2018-12-30T17:29:14.825Z,-80
2018-12-30T17:31:48.395Z,-80
2018-12-30T17:34:22.026Z,-80
2018-12-30T17:37:02.152Z,-80
2018-12-30T17:39:37.280Z,-81
2018-12-30T17:42:11.649Z,-80
2018-12-30T17:44:45.325Z,-80
2018-12-30T17:47:18.166Z,-80
2018-12-30T17:49:50.323Z,-79
2018-12-30T17:52:23.680Z,-80
2018-12-30T17:54:56.531Z,-81
2018-12-30T17:57:29.347Z,-81
2018-12-30T18:00:03.756Z,-81
2018-12-30T18:02:37.881Z,-81
2018-12-30T18:05:11.991Z,-81
2018-12-30T18:07:44.205Z,-81
2018-12-30T18:10:17.702Z,-81
2018-12-30T18:12:52.937Z,-81
2018-12-30T18:15:27.909Z,-81
2018-12-30T18:18:01.437Z,-81
2018-12-30T18:20:36.080Z,-81
2018-12-30T18:23:10.749Z,-82
2018-12-30T18:25:44.644Z,-81
2018-12-30T18:28:18.810Z,-81
2018-12-30T18:30:51.623Z,-81
2018-12-30T18:33:24.104Z,-80
2018-12-30T18:35:59.690Z,-81
2018-12-30T18:38:32.955Z,-81
2018-12-30T18:41:05.661Z,-80
2018-12-30T18:43:38.230Z,-81
2018-12-30T18:46:11.505Z,-81
2018-12-30T18:48:53.769Z,-81
2018-12-30T18:51:33.173Z,-80
2018-12-30T18:54:05.421Z,-81
2018-12-30T18:56:38.994Z,-81
2018-12-30T18:59:14.188Z,-80
2018-12-30T19:01:49.334Z,-81
2018-12-30T19:04:21.966Z,-81
2018-12-30T19:06:54.222Z,-81
2018-12-30T19:09:26.803Z,-80
2018-12-30T19:11:59.475Z,-81
2018-12-30T19:14:34.092Z,-80
2018-12-30T19:17:07.768Z,-82
2018-12-30T19:19:42.994Z,-81
2018-12-30T19:22:17.330Z,-81
2018-12-30T19:24:51.556Z,-81
2018-12-30T19:27:26.574Z,-81
2018-12-30T19:30:01.611Z,-81
2018-12-30T19:32:34.166Z,-80
2018-12-30T19:35:14.466Z,-82
2018-12-30T19:37:53.068Z,-80
2018-12-30T19:40:28.673Z,-80
2018-12-30T19:43:00.857Z,-79
2018-12-30T19:45:33.190Z,-80
2018-12-30T19:48:06.393Z,-81
2018-12-30T19:50:40.805Z,-81
2018-12-30T19:53:15.289Z,-80
2018-12-30T19:55:49.493Z,-81
2018-12-30T19:58:25.213Z,-81
2018-12-30T20:00:59.165Z,-82
2018-12-30T20:03:33.038Z,-80
2018-12-30T20:06:05.854Z,-80
2018-12-30T20:08:38.026Z,-80
2018-12-30T20:11:11.782Z,-80
2018-12-30T20:13:46.262Z,-81
2018-12-30T20:16:20.330Z,-80
2018-12-30T20:18:54.280Z,-80
2018-12-30T20:21:29.733Z,-80
2018-12-30T20:24:05.085Z,-80
2018-12-30T20:26:38.194Z,-80
2018-12-30T20:29:10.473Z,-80
2018-12-30T20:31:44.204Z,-80
2018-12-30T20:34:19.130Z,-79
2018-12-30T20:36:53.427Z,-80
2018-12-30T20:39:28.260Z,-79
2018-12-30T20:42:00.601Z,-80
2018-12-30T20:44:32.744Z,-81
2018-12-30T20:47:05.098Z,-79
2018-12-30T20:49:37.242Z,-79
2018-12-30T20:52:09.426Z,-79
2018-12-30T20:54:42.823Z,-80
2018-12-30T20:57:16.668Z,-79
2018-12-30T20:59:50.128Z,-79
2018-12-30T21:02:24.965Z,-81
2018-12-30T21:04:59.335Z,-79
2018-12-30T21:07:37.555Z,-79
2018-12-30T21:10:12.512Z,-80
2018-12-30T21:12:47.509Z,-79
2018-12-30T21:15:22.372Z,-79
2018-12-30T21:18:00.065Z,-79
2018-12-30T21:20:35.659Z,-84
2018-12-30T21:23:12.554Z,-80
2018-12-30T21:25:47.250Z,-81
2018-12-30T21:28:29.461Z,-81
2018-12-30T21:31:02.532Z,-80
2018-12-30T21:33:34.695Z,-81
2018-12-30T21:36:08.721Z,-81
2018-12-30T21:38:43.468Z,-81
2018-12-30T21:41:18.104Z,-80
2018-12-30T21:43:53.056Z,-81
2018-12-30T21:46:26.695Z,-81
2018-12-30T21:49:00.253Z,-81
2018-12-30T21:51:34.247Z,-81
2018-12-30T21:54:08.178Z,-81
2018-12-30T21:56:42.768Z,-80
2018-12-30T21:59:17.500Z,-81
2018-12-30T22:01:51.853Z,-80
2018-12-30T22:04:25.972Z,-80
2018-12-30T22:06:59.979Z,-80
2018-12-30T22:09:34.424Z,-80
2018-12-30T22:12:08.498Z,-81
2018-12-30T22:14:42.270Z,-81
2018-12-30T22:17:14.902Z,-81
2018-12-30T22:19:47.788Z,-81
2018-12-30T22:22:19.871Z,-82
2018-12-30T22:24:51.802Z,-82
2018-12-30T22:27:24.251Z,-82
2018-12-30T22:29:56.787Z,-83
2018-12-30T22:32:30.546Z,-82
2018-12-30T22:35:02.482Z,-82
2018-12-30T22:37:34.701Z,-79
2018-12-30T22:40:08.120Z,-80
2018-12-30T22:42:40.740Z,-80
2018-12-30T22:45:13.951Z,-81
2018-12-30T22:47:46.181Z,-82
2018-12-30T22:50:19.667Z,-80
2018-12-30T22:52:52.670Z,-79
2018-12-30T22:55:25.791Z,-80
2018-12-30T22:57:58.151Z,-80
2018-12-30T23:00:48.256Z,-79
2018-12-30T23:03:23.935Z,-81
2018-12-30T23:05:58.319Z,-81
2018-12-30T23:08:30.855Z,-81
2018-12-30T23:11:07.482Z,-81
2018-12-30T23:13:40.748Z,-80
2018-12-30T23:16:13.699Z,-81
2018-12-30T23:18:48.361Z,-82
2018-12-30T23:21:24.424Z,-82
2018-12-30T23:23:58.889Z,-81
2018-12-30T23:26:31.726Z,-82
2018-12-30T23:29:04.795Z,-80
2018-12-30T23:31:37.192Z,-80
2018-12-30T23:34:09.546Z,-80
2018-12-30T23:36:43.689Z,-80
2018-12-30T23:39:15.735Z,-82
2018-12-30T23:41:48.802Z,-80
2018-12-30T23:44:21.475Z,-80
2018-12-30T23:46:54.026Z,-80
2018-12-30T23:49:31.673Z,-83
2018-12-30T23:52:04.985Z,-81
2018-12-30T23:54:37.286Z,-80
2018-12-30T23:57:09.141Z,-80
2018-12-30T23:59:41.281Z,-80
